sensor_id;sensor_type;location;lat;lon;timestamp;P1;durP1;ratioP1;P2;durP2;ratioP2
6499;SDS011;3283;52.330;9.772;2023-02-11T11:14:37;491.70;;;136.13;;
6499;SDS011;3283;52.330;9.772;2023-02-11T11:17:10;499.87;;;144.47;;
6499;SDS011;3283;52.330;9.772;2023-02-11T11:19:42;489.77;;;141.00;;
6499;SDS011;3283;52.330;9.772;2023-02-11T11:22:12;509.47;;;146.07;;
6499;SDS011;3283;52.330;9.772;2023-02-11T11:24:46;510.57;;;162.43;;
6499;SDS011;3283;52.330;9.772;2023-02-11T11:27:18;531.80;;;148.63;;
6499;SDS011;3283;52.330;9.772;2023-02-11T11:29:49;524.53;;;136.63;;
6499;SDS011;3283;52.330;9.772;2023-02-11T11:32:27;523.33;;;141.13;;
6499;SDS011;3283;52.330;9.772;2023-02-11T11:35:06;522.97;;;137.30;;
6499;SDS011;3283;52.330;9.772;2023-02-11T11:37:44;531.53;;;145.53;;
6499;SDS011;3283;52.330;9.772;2023-02-11T11:42:45;529.30;;;147.77;;
6499;SDS011;3283;52.330;9.772;2023-02-11T11:45:25;499.30;;;163.00;;
6499;SDS011;3283;52.330;9.772;2023-02-11T11:47:51;499.37;;;147.47;;
6499;SDS011;3283;52.330;9.772;2023-02-11T11:52:59;441.43;;;154.53;;
6499;SDS011;3283;52.330;9.772;2023-02-11T11:55:34;488.67;;;160.00;;
6499;SDS011;3283;52.330;9.772;2023-02-11T11:58:00;485.23;;;144.70;;
6499;SDS011;3283;52.330;9.772;2023-02-11T12:11:46;520.90;;;142.47;;
6499;SDS011;3283;52.330;9.772;2023-02-11T12:17:10;518.40;;;163.43;;
6499;SDS011;3283;52.330;9.772;2023-02-11T12:30:44;525.83;;;162.53;;
6499;SDS011;3283;52.330;9.772;2023-02-11T12:33:37;531.30;;;159.27;;
6499;SDS011;3283;52.330;9.772;2023-02-11T12:41:37;519.57;;;159.90;;
6499;SDS011;3283;52.330;9.772;2023-02-11T12:55:34;532.47;;;153.00;;
6499;SDS011;3283;52.330;9.772;2023-02-11T12:58:08;524.63;;;146.63;;
6499;SDS011;3283;52.330;9.772;2023-02-11T13:06:07;513.30;;;138.27;;
6499;SDS011;3283;52.330;9.772;2023-02-11T13:08:37;522.43;;;149.70;;
6499;SDS011;3283;52.330;9.772;2023-02-11T13:11:09;521.83;;;154.20;;
6499;SDS011;3283;52.330;9.772;2023-02-11T13:24:47;521.87;;;148.10;;
6499;SDS011;3283;52.330;9.772;2023-02-11T13:27:22;521.47;;;143.03;;
6499;SDS011;3283;52.330;9.772;2023-02-11T13:38:21;533.73;;;159.73;;
6499;SDS011;3283;52.330;9.772;2023-02-11T13:41:03;531.40;;;165.57;;
6499;SDS011;3283;52.330;9.772;2023-02-11T13:43:31;536.00;;;159.10;;
6499;SDS011;3283;52.330;9.772;2023-02-11T13:46:01;522.57;;;144.50;;
6499;SDS011;3283;52.330;9.772;2023-02-11T13:48:30;531.03;;;155.93;;
6499;SDS011;3283;52.330;9.772;2023-02-11T13:51:10;542.50;;;158.40;;
6499;SDS011;3283;52.330;9.772;2023-02-11T13:53:43;538.97;;;164.53;;
6499;SDS011;3283;52.330;9.772;2023-02-11T13:56:11;533.43;;;162.97;;
6499;SDS011;3283;52.330;9.772;2023-02-11T13:58:52;529.53;;;157.50;;
6499;SDS011;3283;52.330;9.772;2023-02-11T14:01:37;527.20;;;148.70;;
6499;SDS011;3283;52.330;9.772;2023-02-11T14:11:50;525.53;;;167.60;;
6499;SDS011;3283;52.330;9.772;2023-02-11T14:14:16;533.93;;;162.93;;
6499;SDS011;3283;52.330;9.772;2023-02-11T14:22:03;521.93;;;149.93;;
6499;SDS011;3283;52.330;9.772;2023-02-11T14:32:53;543.47;;;169.63;;
6499;SDS011;3283;52.330;9.772;2023-02-11T14:41:21;516.67;;;150.03;;
6499;SDS011;3283;52.330;9.772;2023-02-11T14:43:50;539.37;;;160.17;;
6499;SDS011;3283;52.330;9.772;2023-02-11T14:46:18;526.30;;;169.60;;
6499;SDS011;3283;52.330;9.772;2023-02-11T14:48:45;524.67;;;152.73;;
6499;SDS011;3283;52.330;9.772;2023-02-11T14:53:49;534.23;;;159.93;;
6499;SDS011;3283;52.330;9.772;2023-02-11T14:56:21;539.97;;;174.17;;
6499;SDS011;3283;52.330;9.772;2023-02-11T14:58:50;530.57;;;150.03;;
6499;SDS011;3283;52.330;9.772;2023-02-11T15:01:30;527.87;;;151.87;;
6499;SDS011;3283;52.330;9.772;2023-02-11T15:03:56;532.00;;;171.27;;
6499;SDS011;3283;52.330;9.772;2023-02-11T15:06:24;520.93;;;150.57;;
6499;SDS011;3283;52.330;9.772;2023-02-11T15:08:54;523.27;;;153.63;;
6499;SDS011;3283;52.330;9.772;2023-02-11T15:11:25;523.17;;;144.27;;
6499;SDS011;3283;52.330;9.772;2023-02-11T15:13:52;537.07;;;157.13;;
6499;SDS011;3283;52.330;9.772;2023-02-11T15:16:24;522.37;;;162.63;;
6499;SDS011;3283;52.330;9.772;2023-02-11T15:18:55;527.97;;;147.97;;
6499;SDS011;3283;52.330;9.772;2023-02-11T15:21:27;537.90;;;155.60;;
6499;SDS011;3283;52.330;9.772;2023-02-11T15:23:56;544.50;;;159.00;;
6499;SDS011;3283;52.330;9.772;2023-02-11T15:26:23;532.27;;;154.20;;
6499;SDS011;3283;52.330;9.772;2023-02-11T15:28:48;531.53;;;154.20;;
6499;SDS011;3283;52.330;9.772;2023-02-11T15:31:16;528.30;;;148.57;;
6499;SDS011;3283;52.330;9.772;2023-02-11T15:33:44;524.87;;;153.47;;
6499;SDS011;3283;52.330;9.772;2023-02-11T15:36:10;522.50;;;139.67;;
6499;SDS011;3283;52.330;9.772;2023-02-11T15:38:38;528.17;;;146.33;;
6499;SDS011;3283;52.330;9.772;2023-02-11T15:41:05;523.03;;;142.47;;
6499;SDS011;3283;52.330;9.772;2023-02-11T15:43:50;539.40;;;159.50;;
6499;SDS011;3283;52.330;9.772;2023-02-11T15:46:17;523.87;;;147.40;;
6499;SDS011;3283;52.330;9.772;2023-02-11T15:48:46;531.47;;;155.43;;
6499;SDS011;3283;52.330;9.772;2023-02-11T15:56:43;529.90;;;147.43;;
6499;SDS011;3283;52.330;9.772;2023-02-11T15:59:16;528.80;;;151.43;;
6499;SDS011;3283;52.330;9.772;2023-02-11T16:01:55;530.83;;;152.23;;
6499;SDS011;3283;52.330;9.772;2023-02-11T16:04:23;530.00;;;146.97;;
6499;SDS011;3283;52.330;9.772;2023-02-11T16:06:50;525.30;;;169.00;;
6499;SDS011;3283;52.330;9.772;2023-02-11T16:14:20;528.90;;;151.40;;
6499;SDS011;3283;52.330;9.772;2023-02-11T16:16:48;534.73;;;158.37;;
6499;SDS011;3283;52.330;9.772;2023-02-11T16:19:17;521.47;;;146.37;;
6499;SDS011;3283;52.330;9.772;2023-02-11T16:21:44;533.53;;;162.60;;
6499;SDS011;3283;52.330;9.772;2023-02-11T16:26:47;541.07;;;163.63;;
6499;SDS011;3283;52.330;9.772;2023-02-11T16:29:21;533.60;;;157.90;;
6499;SDS011;3283;52.330;9.772;2023-02-11T16:31:48;554.55;;;197.93;;
6499;SDS011;3283;52.330;9.772;2023-02-11T16:34:24;543.43;;;185.30;;
6499;SDS011;3283;52.330;9.772;2023-02-11T16:36:50;545.60;;;163.07;;
6499;SDS011;3283;52.330;9.772;2023-02-11T16:39:17;532.80;;;159.20;;
6499;SDS011;3283;52.330;9.772;2023-02-11T16:41:46;529.77;;;146.33;;
6499;SDS011;3283;52.330;9.772;2023-02-11T16:44:14;542.07;;;154.17;;
6499;SDS011;3283;52.330;9.772;2023-02-11T16:46:40;522.77;;;138.57;;
